Time;durP1;ratioP1;P1;durP2;ratioP2;P2;SDS_P1;SDS_P2;PMS_P1;PMS_P2;Temp;Humidity;BMP_temperature;BMP_pressure;BME280_temperature;BME280_humidity;BME280_pressure;Samples;Min_cycle;Max_cycle;Signal;HPM_P1;HPM_P2
2022/03/09 00:01:13;;;;;;;38.03;15.23;;;5.10;99.90;;;;;;5018527;28;20030;-76
2022/03/09 00:03:39;;;;;;;35.65;14.57;;;5.10;99.90;;;;;;5017737;28;20518;-77
2022/03/09 00:06:04;;;;;;;25.23;10.75;;;5.10;99.90;;;;;;5017266;28;20119;-76
2022/03/09 00:08:30;;;;;;;20.67;8.90;;;5.00;99.90;;;;;;5018078;28;20032;-77
2022/03/09 00:10:56;;;;;;;19.15;9.27;;;5.00;99.90;;;;;;5017832;28;20061;-76
2022/03/09 00:13:21;;;;;;;18.80;8.90;;;4.90;99.90;;;;;;5017847;28;20033;-76
2022/03/09 00:15:47;;;;;;;19.92;8.48;;;4.90;99.90;;;;;;4999716;28;20034;-76
2022/03/09 00:18:12;;;;;;;18.98;8.55;;;4.90;99.90;;;;;;5016981;28;20022;-76
2022/03/09 00:20:38;;;;;;;19.23;8.77;;;4.80;99.90;;;;;;5016570;28;20062;-76
2022/03/09 00:23:03;;;;;;;19.75;7.75;;;4.80;99.90;;;;;;5016824;28;20029;-75
2022/03/09 00:25:29;;;;;;;25.10;11.40;;;4.80;99.90;;;;;;5028956;28;20108;-74
2022/03/09 00:27:54;;;;;;;38.92;18.02;;;4.80;99.90;;;;;;5030378;28;20046;-76
2022/03/09 00:30:20;;;;;;;20.20;8.18;;;4.70;99.90;;;;;;5021307;28;20034;-76
2022/03/09 00:32:46;;;;;;;20.75;11.25;;;4.70;99.90;;;;;;5018120;28;20029;-75
2022/03/09 00:35:11;;;;;;;18.92;8.43;;;4.60;99.90;;;;;;5017036;28;20034;-75
2022/03/09 00:37:37;;;;;;;17.10;7.78;;;4.50;99.90;;;;;;5017585;28;20022;-75
2022/03/09 00:40:03;;;;;;;14.05;7.90;;;4.50;99.90;;;;;;5020562;28;20475;-76
2022/03/09 00:42:29;;;;;;;16.35;7.80;;;4.40;99.90;;;;;;5024343;28;20041;-76
2022/03/09 00:44:55;;;;;;;17.55;7.85;;;4.40;99.90;;;;;;5025191;28;20038;-76
2022/03/09 00:47:20;;;;;;;18.40;8.73;;;4.40;99.90;;;;;;5006849;28;20029;-76
2022/03/09 00:49:46;;;;;;;15.23;7.78;;;4.40;99.90;;;;;;5025635;28;20026;-76
2022/03/09 00:52:11;;;;;;;17.45;7.60;;;4.40;99.90;;;;;;5024191;28;20025;-76
2022/03/09 00:54:37;;;;;;;14.65;7.18;;;4.30;99.90;;;;;;5026910;28;20026;-76
2022/03/09 00:57:02;;;;;;;14.98;7.30;;;4.30;99.90;;;;;;5035201;28;20057;-76
2022/03/09 00:59:28;;;;;;;15.38;7.22;;;4.30;99.90;;;;;;5018751;28;20093;-75
2022/03/09 01:01:53;;;;;;;17.75;7.13;;;4.20;99.90;;;;;;5011372;28;20033;-76
2022/03/09 01:04:19;;;;;;;16.95;7.88;;;4.20;99.90;;;;;;5020403;28;20030;-76
2022/03/09 01:06:44;;;;;;;16.58;7.60;;;4.10;99.90;;;;;;5015285;28;20030;-75
2022/03/09 01:09:10;;;;;;;14.90;7.13;;;4.10;99.90;;;;;;5021104;23;20025;-74
2022/03/09 01:11:37;;;;;;;17.52;7.72;;;4.00;99.90;;;;;;5037392;28;20038;-73
2022/03/09 01:14:02;;;;;;;13.10;6.82;;;4.00;99.90;;;;;;5035295;28;20521;-73
2022/03/09 01:16:28;;;;;;;18.55;7.30;;;4.00;99.90;;;;;;5034567;28;20034;-73
2022/03/09 01:18:53;;;;;;;15.45;7.25;;;4.00;99.90;;;;;;5041948;28;20025;-74
2022/03/09 01:21:19;;;;;;;15.95;7.75;;;3.90;99.90;;;;;;5034887;28;20055;-75
2022/03/09 01:23:44;;;;;;;16.48;7.40;;;3.80;99.90;;;;;;5034169;28;20108;-74
2022/03/09 01:26:10;;;;;;;17.27;7.88;;;3.90;99.90;;;;;;5034169;28;20032;-73
2022/03/09 01:28:35;;;;;;;16.77;6.75;;;3.80;99.90;;;;;;5036933;28;20108;-73
2022/03/09 01:31:01;;;;;;;13.00;6.75;;;3.90;99.90;;;;;;5035701;28;20394;-75
2022/03/09 01:33:26;;;;;;;14.05;7.03;;;3.80;99.90;;;;;;5034985;28;20035;-74
2022/03/09 01:35:52;;;;;;;15.20;6.97;;;3.90;99.90;;;;;;5034388;28;20079;-74
2022/03/09 01:38:17;;;;;;;15.80;7.22;;;3.90;99.90;;;;;;5034073;28;20025;-74
2022/03/09 01:40:43;;;;;;;13.40;7.18;;;3.90;99.90;;;;;;5034092;28;20083;-75
2022/03/09 01:43:09;;;;;;;20.58;8.10;;;3.90;99.90;;;;;;5016299;28;20119;-74
2022/03/09 01:45:35;;;;;;;13.55;7.00;;;3.80;99.90;;;;;;5015703;28;20041;-73
2022/03/09 01:48:00;;;;;;;13.30;6.55;;;3.80;99.90;;;;;;5033880;28;20026;-74
2022/03/09 01:50:26;;;;;;;19.85;7.25;;;3.70;99.90;;;;;;5033675;28;20034;-74
2022/03/09 01:52:51;;;;;;;17.73;6.60;;;3.70;99.90;;;;;;5033607;28;20029;-76
2022/03/09 01:55:17;;;;;;;14.43;6.93;;;3.60;99.90;;;;;;5033114;28;20057;-73
2022/03/09 01:57:42;;;;;;;15.68;6.70;;;3.50;99.90;;;;;;5033288;28;20744;-73
2022/03/09 02:00:10;;;;;;;15.50;6.63;;;3.40;99.90;;;;;;5033282;28;20037;-73
2022/03/09 02:02:35;;;;;;;15.85;7.28;;;3.40;99.90;;;;;;5033478;28;20035;-73
2022/03/09 02:05:01;;;;;;;14.45;7.47;;;3.30;99.90;;;;;;5033294;28;20486;-74
2022/03/09 02:10:11;;;;;;;11.73;6.70;;;3.20;99.90;;;;;;5033222;28;20044;-74
2022/03/09 02:12:37;;;;;;;17.10;7.80;;;3.20;99.90;;;;;;5034237;28;20409;-74
2022/03/09 02:15:04;;;;;;;14.32;7.00;;;3.20;99.90;;;;;;5033549;28;20028;-74
2022/03/09 02:17:30;;;;;;;18.20;7.82;;;3.20;99.90;;;;;;5035695;28;20037;-73
2022/03/09 02:19:57;;;;;;;15.18;7.47;;;3.30;99.90;;;;;;5018317;28;20216;-74
2022/03/09 02:22:36;;;;;;;18.58;7.05;;;3.30;99.90;;;;;;5034024;28;20375;-74
2022/03/09 02:25:06;;;;;;;16.65;7.95;;;3.40;99.90;;;;;;5035382;28;20389;-75
2022/03/09 02:27:32;;;;;;;16.35;7.50;;;3.40;99.90;;;;;;5034881;28;20107;-73
2022/03/09 02:29:57;;;;;;;14.52;7.70;;;3.50;99.90;;;;;;5033853;28;20037;-74
2022/03/09 02:32:23;;;;;;;16.85;7.25;;;3.50;99.90;;;;;;5032909;28;20023;-74
2022/03/09 02:34:50;;;;;;;22.38;7.22;;;3.50;99.90;;;;;;5032747;28;20036;-72
2022/03/09 02:37:15;;;;;;;12.85;6.45;;;3.60;99.90;;;;;;5033092;28;20446;-74
2022/03/09 02:39:41;;;;;;;16.77;7.43;;;3.60;99.90;;;;;;5032518;28;20041;-72
2022/03/09 02:42:08;;;;;;;12.30;6.75;;;3.60;99.90;;;;;;5036953;28;20032;-73
2022/03/09 02:44:33;;;;;;;20.25;8.20;;;3.60;99.90;;;;;;5039747;28;20022;-72
2022/03/09 02:46:59;;;;;;;13.88;6.68;;;3.60;99.90;;;;;;5039470;28;20108;-74
2022/03/09 02:49:25;;;;;;;19.55;7.57;;;3.50;99.90;;;;;;5019229;28;20028;-73
2022/03/09 02:51:51;;;;;;;14.45;7.10;;;3.40;99.90;;;;;;5034348;28;20378;-72
2022/03/09 02:54:17;;;;;;;16.60;7.50;;;3.40;99.90;;;;;;5032696;28;20109;-73
2022/03/09 02:56:43;;;;;;;15.70;7.63;;;3.30;99.90;;;;;;5032161;28;20342;-72
2022/03/09 02:59:09;;;;;;;17.92;7.45;;;3.30;99.90;;;;;;5014476;28;20029;-72
2022/03/09 03:01:35;;;;;;;18.20;7.40;;;3.20;99.90;;;;;;5014657;28;20504;-74
2022/03/09 03:04:00;;;;;;;20.92;8.25;;;3.20;99.90;;;;;;5032280;28;20068;-75
2022/03/09 03:06:26;;;;;;;15.23;7.60;;;3.30;99.90;;;;;;5031810;28;20371;-73
2022/03/09 03:08:52;;;;;;;18.17;7.72;;;3.20;99.90;;;;;;5031933;28;20083;-74
2022/03/09 03:11:17;;;;;;;19.02;7.93;;;3.10;99.90;;;;;;5013612;28;20528;-75
2022/03/09 03:13:44;;;;;;;15.02;7.80;;;3.00;99.90;;;;;;5031092;28;20036;-74
2022/03/09 03:16:11;;;;;;;19.35;7.53;;;3.00;99.90;;;;;;5014014;28;20475;-74
2022/03/09 03:18:37;;;;;;;15.05;7.80;;;3.00;99.90;;;;;;5032035;28;20042;-73
2022/03/09 03:21:04;;;;;;;19.27;7.88;;;3.00;99.90;;;;;;5014653;28;20103;-74
2022/03/09 03:23:31;;;;;;;19.63;7.68;;;3.00;99.90;;;;;;5032054;28;20037;-73
2022/03/09 03:25:58;;;;;;;15.13;7.70;;;3.00;99.90;;;;;;5032179;28;20030;-75
2022/03/09 03:28:24;;;;;;;17.35;7.70;;;3.00;99.90;;;;;;5033707;28;20037;-73
2022/03/09 03:30:50;;;;;;;16.60;8.23;;;3.00;99.90;;;;;;5018616;28;20052;-75
2022/03/09 03:33:17;;;;;;;15.95;8.10;;;3.00;99.90;;;;;;5036115;28;20451;-73
2022/03/09 03:35:43;;;;;;;19.70;7.78;;;2.90;99.90;;;;;;5035895;28;20026;-73
2022/03/09 03:38:10;;;;;;;23.52;7.82;;;2.90;99.90;;;;;;5036208;28;20030;-73
2022/03/09 03:40:36;;;;;;;17.48;8.05;;;2.90;99.90;;;;;;5035964;28;20104;-74
2022/03/09 03:43:01;;;;;;;15.40;7.18;;;2.90;99.90;;;;;;5037266;28;20479;-72
2022/03/09 03:45:27;;;;;;;17.63;7.90;;;2.90;99.90;;;;;;5035958;28;20056;-76
2022/03/09 03:47:52;;;;;;;15.63;7.50;;;2.90;99.90;;;;;;5036659;28;20032;-76
2022/03/09 03:50:18;;;;;;;14.98;7.78;;;2.80;99.90;;;;;;5036965;28;20049;-72
2022/03/09 03:52:44;;;;;;;20.67;8.65;;;2.90;99.90;;;;;;5039604;28;20104;-72
2022/03/09 03:55:10;;;;;;;16.27;7.70;;;2.90;99.90;;;;;;5018658;28;20465;-74
2022/03/09 03:57:36;;;;;;;17.48;8.02;;;2.90;99.90;;;;;;5036630;28;20031;-72
2022/03/09 04:00:04;;;;;;;22.20;8.40;;;2.90;99.90;;;;;;5036924;28;20478;-74
2022/03/09 04:02:30;;;;;;;15.32;7.70;;;2.90;99.90;;;;;;5037083;28;20489;-72
2022/03/09 04:04:55;;;;;;;17.20;7.70;;;3.00;99.90;;;;;;5035589;28;20033;-73
2022/03/09 04:07:21;;;;;;;16.55;8.93;;;3.00;99.90;;;;;;5035238;28;20123;-72
2022/03/09 04:09:46;;;;;;;14.73;8.10;;;3.00;99.90;;;;;;5035133;28;20438;-73
2022/03/09 04:12:12;;;;;;;19.92;8.90;;;3.10;99.90;;;;;;5017590;28;20017;-75
2022/03/09 04:14:38;;;;;;;17.08;7.55;;;3.00;99.90;;;;;;5035382;28;20109;-73
2022/03/09 04:17:04;;;;;;;16.63;7.95;;;3.10;99.90;;;;;;5035098;28;20022;-73
2022/03/09 04:19:29;;;;;;;17.65;7.80;;;3.10;99.90;;;;;;5035245;28;20024;-72
2022/03/09 04:21:55;;;;;;;19.83;7.97;;;3.10;99.90;;;;;;5035410;28;20596;-75
2022/03/09 04:24:20;;;;;;;16.88;7.47;;;3.00;99.90;;;;;;5035430;28;20036;-72
2022/03/09 04:26:46;;;;;;;14.25;8.02;;;3.00;99.90;;;;;;5035437;28;20470;-74
2022/03/09 04:29:12;;;;;;;18.05;8.07;;;3.00;99.90;;;;;;5035460;28;20022;-74
2022/03/09 04:31:38;;;;;;;18.45;7.57;;;3.00;99.90;;;;;;5035261;28;20026;-75
2022/03/09 04:34:03;;;;;;;15.20;7.68;;;2.90;99.90;;;;;;5035027;28;20022;-73
2022/03/09 04:36:29;;;;;;;17.90;7.88;;;3.00;99.90;;;;;;5035060;28;20022;-72
2022/03/09 04:38:55;;;;;;;17.83;8.57;;;2.90;99.90;;;;;;5035028;28;20395;-75
2022/03/09 04:41:21;;;;;;;14.32;7.93;;;3.00;99.90;;;;;;5036167;28;20033;-74
2022/03/09 04:43:47;;;;;;;18.88;8.80;;;2.90;99.90;;;;;;5035457;28;20032;-71
2022/03/09 04:46:13;;;;;;;14.38;7.75;;;2.90;99.90;;;;;;5035102;28;20029;-73
2022/03/09 04:48:38;;;;;;;17.05;8.05;;;2.90;99.90;;;;;;5034837;28;20104;-72
2022/03/09 04:51:04;;;;;;;19.08;8.98;;;2.90;99.90;;;;;;5034834;28;20095;-74
2022/03/09 04:53:31;;;;;;;12.82;7.50;;;2.90;99.90;;;;;;5034891;28;20045;-74
2022/03/09 04:55:57;;;;;;;16.30;8.43;;;3.00;99.90;;;;;;5035161;28;20030;-73
2022/03/09 04:58:23;;;;;;;23.92;10.05;;;2.90;99.90;;;;;;5035031;28;20366;-73
2022/03/09 05:00:48;;;;;;;23.90;11.85;;;2.80;99.90;;;;;;5035535;28;20061;-73
2022/03/09 05:03:14;;;;;;;18.27;8.40;;;2.80;99.90;;;;;;5037712;28;20104;-73
2022/03/09 05:05:39;;;;;;;20.50;9.00;;;2.80;99.90;;;;;;5038846;28;20025;-72
2022/03/09 05:08:05;;;;;;;20.35;8.27;;;2.80;99.90;;;;;;5019829;28;20433;-73
2022/03/09 05:10:30;;;;;;;20.23;8.45;;;2.80;99.90;;;;;;5037851;28;20037;-73
2022/03/09 05:12:56;;;;;;;17.70;8.00;;;2.80;99.90;;;;;;5036732;28;20390;-73
2022/03/09 05:15:21;;;;;;;16.77;8.65;;;2.90;99.90;;;;;;5034313;28;20115;-73
2022/03/09 05:17:47;;;;;;;18.88;9.20;;;2.80;99.90;;;;;;5032772;28;20053;-74
2022/03/09 05:20:15;;;;;;;23.75;10.48;;;2.80;99.90;;;;;;5033869;28;21244;-74
2022/03/09 05:22:41;;;;;;;26.17;11.18;;;2.80;99.90;;;;;;5034144;28;20104;-73
2022/03/09 05:25:07;;;;;;;20.25;10.23;;;2.80;99.90;;;;;;5034014;28;20096;-73
2022/03/09 05:27:32;;;;;;;26.25;10.52;;;2.80;99.90;;;;;;5035999;28;20030;-73
2022/03/09 05:29:58;;;;;;;25.77;11.60;;;2.70;99.90;;;;;;5035615;28;20723;-73
2022/03/09 05:32:24;;;;;;;24.58;10.90;;;2.70;99.90;;;;;;5016178;28;20025;-74
2022/03/09 05:34:50;;;;;;;23.73;9.52;;;2.60;99.90;;;;;;5034566;28;20394;-73
2022/03/09 05:37:19;;;;;;;25.88;9.50;;;2.60;99.90;;;;;;5033946;28;20071;-73
2022/03/09 05:39:45;;;;;;;19.48;9.05;;;2.60;99.90;;;;;;5035075;28;20041;-75
2022/03/09 05:42:10;;;;;;;20.23;9.52;;;2.60;99.90;;;;;;5034068;28;20026;-72
2022/03/09 05:44:36;;;;;;;20.02;9.07;;;2.50;99.90;;;;;;5033645;28;20030;-72
2022/03/09 05:47:02;;;;;;;23.38;10.35;;;2.50;99.90;;;;;;5033289;28;20030;-73
2022/03/09 05:49:27;;;;;;;21.13;8.90;;;2.50;99.90;;;;;;5033356;28;20548;-74
2022/03/09 05:51:53;;;;;;;24.80;10.00;;;2.50;99.90;;;;;;5031873;28;20104;-74
2022/03/09 05:54:19;;;;;;;23.58;9.68;;;2.40;99.90;;;;;;5032468;28;20072;-78
2022/03/09 05:56:45;;;;;;;21.52;9.15;;;2.40;99.90;;;;;;5033239;28;20025;-73
2022/03/09 05:59:11;;;;;;;21.83;9.90;;;2.50;99.90;;;;;;5015508;28;20462;-72
2022/03/09 06:01:37;;;;;;;20.58;9.77;;;2.40;99.90;;;;;;5033406;28;20437;-74
2022/03/09 06:04:03;;;;;;;22.13;9.00;;;2.40;99.90;;;;;;5033309;28;20494;-72
2022/03/09 06:06:29;;;;;;;19.08;9.20;;;2.40;99.90;;;;;;5016122;28;20033;-73
2022/03/09 06:08:54;;;;;;;18.05;9.13;;;2.50;99.90;;;;;;5036994;28;20025;-74
2022/03/09 06:11:20;;;;;;;20.38;9.18;;;2.60;99.90;;;;;;5035905;28;20104;-75
2022/03/09 06:13:46;;;;;;;17.15;9.18;;;2.70;99.90;;;;;;5033513;28;20103;-75
2022/03/09 06:16:11;;;;;;;21.25;8.85;;;2.70;99.90;;;;;;5033595;28;20355;-75
2022/03/09 06:18:37;;;;;;;20.27;9.45;;;2.80;99.90;;;;;;5033644;28;20014;-74
2022/03/09 06:21:03;;;;;;;17.27;8.55;;;2.80;99.90;;;;;;5034004;28;20107;-73
2022/03/09 06:23:29;;;;;;;20.15;9.23;;;2.80;99.90;;;;;;5038399;28;20068;-74
2022/03/09 06:25:54;;;;;;;19.73;8.05;;;2.90;99.90;;;;;;5037151;28;20031;-73
2022/03/09 06:28:20;;;;;;;18.23;9.63;;;3.00;99.90;;;;;;5033475;28;20112;-74
2022/03/09 06:30:46;;;;;;;16.77;8.38;;;2.90;99.90;;;;;;5032768;28;20064;-74
2022/03/09 06:33:11;;;;;;;16.27;7.78;;;3.00;99.90;;;;;;5035177;28;20083;-74
2022/03/09 06:35:38;;;;;;;17.60;7.85;;;3.00;99.90;;;;;;5016577;28;20017;-74
2022/03/09 06:38:03;;;;;;;17.08;8.20;;;3.10;99.90;;;;;;5033079;28;20057;-72
2022/03/09 06:40:29;;;;;;;16.50;8.20;;;3.10;99.90;;;;;;5032837;28;20124;-72
2022/03/09 06:42:55;;;;;;;23.80;8.88;;;3.20;99.90;;;;;;5032976;28;20021;-74
2022/03/09 06:45:20;;;;;;;20.02;7.95;;;3.20;99.90;;;;;;5015745;28;20029;-73
2022/03/09 06:47:46;;;;;;;17.80;8.85;;;3.20;99.90;;;;;;5032454;28;20053;-73
2022/03/09 06:50:11;;;;;;;20.25;8.35;;;3.30;99.90;;;;;;5032274;28;20393;-74
2022/03/09 06:52:37;;;;;;;21.25;9.02;;;3.30;99.90;;;;;;5032394;28;20056;-73
2022/03/09 06:55:07;;;;;;;16.83;8.18;;;3.40;99.90;;;;;;5032634;28;20033;-78
2022/03/09 06:57:33;;;;;;;18.63;8.18;;;3.40;99.90;;;;;;5032277;28;20060;-73
2022/03/09 06:59:59;;;;;;;15.25;8.13;;;3.50;99.90;;;;;;5015071;28;20033;-75
2022/03/09 07:02:26;;;;;;;19.75;8.50;;;3.50;99.90;;;;;;5032526;28;20466;-77
2022/03/09 07:04:51;;;;;;;19.85;8.38;;;3.60;99.90;;;;;;5032811;28;20517;-73
2022/03/09 07:07:17;;;;;;;21.80;8.63;;;3.60;99.90;;;;;;5032849;28;20030;-74
2022/03/09 07:09:42;;;;;;;17.58;8.45;;;3.70;99.90;;;;;;5029920;23;20053;-77
2022/03/09 07:12:08;;;;;;;15.88;8.00;;;3.70;99.90;;;;;;4996587;28;20038;-76
2022/03/09 07:14:34;;;;;;;20.67;8.52;;;3.80;99.90;;;;;;4994529;28;20030;-76
2022/03/09 07:17:00;;;;;;;24.23;8.68;;;3.90;99.90;;;;;;4994951;28;20018;-76
2022/03/09 07:19:26;;;;;;;19.00;8.07;;;3.90;99.90;;;;;;4997188;28;20109;-77
2022/03/09 07:21:53;;;;;;;24.48;8.73;;;4.00;99.90;;;;;;4999893;28;20283;-76
2022/03/09 07:24:19;;;;;;;16.70;8.07;;;4.20;99.90;;;;;;4995616;28;20027;-75
2022/03/09 07:26:45;;;;;;;23.42;8.88;;;4.20;99.90;;;;;;4994847;28;20035;-76
2022/03/09 07:29:11;;;;;;;30.00;9.57;;;4.20;99.90;;;;;;4993884;28;20098;-76
2022/03/09 07:31:37;;;;;;;24.33;9.57;;;4.30;99.90;;;;;;4993766;28;20468;-76
2022/03/09 07:34:03;;;;;;;16.92;8.48;;;4.40;99.90;;;;;;4994964;28;20018;-76
2022/03/09 07:36:29;;;;;;;17.25;8.52;;;4.40;99.90;;;;;;4996207;28;20084;-76
2022/03/09 07:38:54;;;;;;;20.13;9.50;;;4.40;99.90;;;;;;4994226;28;20022;-77
2022/03/09 07:41:20;;;;;;;22.95;9.13;;;4.50;99.90;;;;;;4993325;28;20045;-76
2022/03/09 07:43:45;;;;;;;25.33;9.27;;;4.70;99.90;;;;;;4992253;28;20022;-76
2022/03/09 07:46:11;;;;;;;21.38;9.20;;;4.70;99.90;;;;;;5009883;28;20082;-76
2022/03/09 07:48:37;;;;;;;20.42;8.93;;;4.90;99.90;;;;;;5010127;28;20053;-76
2022/03/09 07:51:02;;;;;;;25.33;10.60;;;4.90;99.90;;;;;;4996307;28;20053;-76
2022/03/09 07:53:28;;;;;;;23.33;9.18;;;5.00;99.90;;;;;;4996267;28;20603;-76
2022/03/09 07:55:53;;;;;;;18.75;8.32;;;5.10;99.90;;;;;;4994902;28;20491;-76
2022/03/09 07:58:19;;;;;;;17.25;7.72;;;5.20;99.90;;;;;;4995422;28;20027;-76
2022/03/09 08:00:44;;;;;;;18.30;7.78;;;5.40;99.90;;;;;;4994590;28;20030;-76
2022/03/09 08:03:10;;;;;;;17.88;8.55;;;5.50;99.90;;;;;;4997938;28;20096;-76
2022/03/09 08:05:35;;;;;;;21.67;7.72;;;5.60;99.90;;;;;;4997831;28;20361;-78
2022/03/09 08:08:01;;;;;;;21.73;8.18;;;5.70;99.90;;;;;;4995291;28;20479;-76
2022/03/09 08:10:27;;;;;;;20.33;8.30;;;5.80;99.90;;;;;;4994356;28;20045;-77
2022/03/09 08:12:52;;;;;;;24.83;8.73;;;6.00;99.90;;;;;;5004106;28;20057;-76
2022/03/09 08:15:18;;;;;;;22.10;8.70;;;6.00;99.90;;;;;;4997584;28;20444;-76
2022/03/09 08:17:43;;;;;;;26.55;8.05;;;6.20;99.90;;;;;;5003699;28;20023;-77
2022/03/09 08:20:09;;;;;;;16.48;7.65;;;6.30;99.90;;;;;;5010085;28;20078;-76
2022/03/09 08:22:35;;;;;;;18.75;7.97;;;6.40;99.90;;;;;;5008122;28;20038;-76
2022/03/09 08:25:02;;;;;;;18.45;7.53;;;6.60;99.90;;;;;;4999036;28;20082;-76
2022/03/09 08:27:27;;;;;;;21.33;7.95;;;6.70;99.90;;;;;;4997102;28;20419;-77
2022/03/09 08:29:53;;;;;;;14.65;7.32;;;6.80;99.90;;;;;;4997371;28;20035;-76
2022/03/09 08:32:19;;;;;;;21.88;8.27;;;7.00;99.90;;;;;;4999885;28;20022;-77
2022/03/09 08:34:45;;;;;;;20.50;7.47;;;7.20;99.90;;;;;;5004508;28;20030;-77
2022/03/09 08:37:11;;;;;;;17.98;7.50;;;7.60;99.90;;;;;;5017531;28;20062;-77
2022/03/09 08:39:37;;;;;;;18.92;7.60;;;8.10;99.90;;;;;;5015605;28;20042;-75
2022/03/09 08:42:02;;;;;;;71.90;27.95;;;8.90;99.90;;;;;;5013358;28;20061;-76
2022/03/09 08:44:28;;;;;;;21.00;7.22;;;9.80;99.90;;;;;;5013224;28;20103;-76
2022/03/09 08:46:53;;;;;;;13.70;7.13;;;10.80;99.90;;;;;;5015388;28;20022;-76
2022/03/09 08:49:19;;;;;;;13.60;6.65;;;11.70;99.90;;;;;;5014607;28;20078;-75
2022/03/09 08:51:45;;;;;;;18.98;6.97;;;;;;;;;;5013239;28;20153;-75
2022/03/09 08:54:11;;;;;;;16.02;6.55;;;12.60;99.50;;;;;;4998977;28;20026;-77
2022/03/09 08:56:37;;;;;;;19.40;6.95;;;;;;;;;;5008470;28;20031;-77
2022/03/09 08:59:03;;;;;;;22.75;7.43;;;;;;;;;;4996849;28;20033;-77
2022/03/09 09:01:28;;;;;;;16.42;6.97;;;14.50;93.30;;;;;;4998871;28;20018;-79
2022/03/09 09:03:54;;;;;;;16.35;6.70;;;16.60;75.50;;;;;;5002504;28;20033;-77
2022/03/09 09:06:20;;;;;;;19.17;7.07;;;16.80;69.60;;;;;;4997136;28;20101;-77
2022/03/09 09:08:45;;;;;;;23.45;7.60;;;17.20;65.40;;;;;;5003384;28;20019;-77
2022/03/09 09:11:11;;;;;;;16.77;6.15;;;17.30;62.20;;;;;;5000532;28;20046;-77
2022/03/09 09:13:36;;;;;;;19.60;6.82;;;17.50;60.30;;;;;;5000428;28;20022;-76
2022/03/09 09:16:02;;;;;;;18.95;6.75;;;17.90;59.50;;;;;;4997061;28;20030;-76
2022/03/09 09:18:28;;;;;;;18.23;6.63;;;18.20;56.80;;;;;;4995974;28;20029;-76
2022/03/09 09:20:54;;;;;;;15.73;6.78;;;18.50;54.80;;;;;;4996270;28;20030;-77
2022/03/09 09:23:20;;;;;;;9.68;5.60;;;18.80;53.30;;;;;;4995909;28;20022;-78
2022/03/09 09:25:47;;;;;;;16.70;6.20;;;19.00;51.00;;;;;;4998881;28;20023;-78
2022/03/09 09:28:13;;;;;;;15.57;6.38;;;19.20;50.20;;;;;;4996682;28;20543;-75
2022/03/09 09:30:39;;;;;;;15.88;6.50;;;19.70;49.50;;;;;;4994447;28;20022;-77
2022/03/09 09:33:05;;;;;;;12.93;7.03;;;19.60;48.80;;;;;;4995158;28;20032;-76
2022/03/09 09:35:30;;;;;;;15.48;6.57;;;20.10;47.80;;;;;;5000078;28;20439;-76
2022/03/09 09:37:56;;;;;;;15.57;6.82;;;20.20;47.00;;;;;;4997770;28;20072;-77
2022/03/09 09:40:24;;;;;;;20.75;6.43;;;20.70;46.60;;;;;;4996475;28;20146;-76
2022/03/09 09:42:50;;;;;;;16.15;6.72;;;;;;;;;;4996546;28;20041;-76
2022/03/09 09:45:16;;;;;;;10.98;5.97;;;;;;;;;;4995271;28;20022;-76
2022/03/09 09:47:43;;;;;;;15.18;6.32;;;;;;;;;;4998548;28;20085;-76
2022/03/09 09:50:13;;;;;;;10.98;6.32;;;;;;;;;;5000138;28;20452;-77
2022/03/09 09:52:40;;;;;;;14.60;5.97;;;20.90;45.70;;;;;;4997205;28;20029;-76
2022/03/09 09:55:07;;;;;;;12.68;6.53;;;23.50;41.20;;;;;;4997266;28;20050;-77
2022/03/09 09:57:33;;;;;;;13.73;7.00;;;23.60;39.90;;;;;;4997609;28;20018;-76
2022/03/09 09:59:58;;;;;;;14.40;6.10;;;23.00;39.40;;;;;;4997966;28;20032;-77
2022/03/09 10:02:24;;;;;;;15.77;6.30;;;23.10;38.90;;;;;;4999845;28;20034;-80
2022/03/09 10:04:50;;;;;;;17.30;6.05;;;23.10;38.60;;;;;;4999452;28;20153;-76
2022/03/09 10:07:17;;;;;;;12.18;6.22;;;24.20;37.40;;;;;;4996084;28;20038;-76
2022/03/09 10:09:43;;;;;;;9.82;6.32;;;24.50;36.00;;;;;;4994685;28;20102;-76
2022/03/09 10:12:10;;;;;;;13.20;6.25;;;23.80;35.60;;;;;;4996306;28;20030;-76
2022/03/09 10:14:46;;;;;;;14.23;7.03;;;24.00;35.20;;;;;;4997257;28;20438;-76
2022/03/09 10:17:32;;;;;;;13.93;6.20;;;24.00;35.00;;;;;;4995994;28;20061;-75
2022/03/09 10:20:09;;;;;;;27.48;12.05;;;23.80;34.80;;;;;;4999518;28;20037;-77
2022/03/09 10:22:44;;;;;;;13.25;6.80;;;24.10;34.90;;;;;;5001035;28;20053;-77
2022/03/09 10:25:09;;;;;;;17.52;7.50;;;24.30;34.50;;;;;;4996123;28;20026;-76
2022/03/09 10:27:55;;;;;;;16.30;6.80;;;24.70;34.30;;;;;;4993592;28;20023;-75
2022/03/09 10:30:35;;;;;;;17.73;7.28;;;24.70;33.70;;;;;;4993279;28;20065;-76
2022/03/09 10:33:09;;;;;;;25.13;7.22;;;24.90;33.40;;;;;;4993340;28;20140;-76
2022/03/09 10:35:34;;;;;;;18.25;6.57;;;25.20;32.70;;;;;;4994707;28;20029;-75
2022/03/09 10:38:03;;;;;;;12.77;7.35;;;25.50;32.40;;;;;;4995786;28;20105;-77
2022/03/09 10:40:30;;;;;;;17.90;7.50;;;;;;;;;;4996302;28;20038;-76
2022/03/09 10:43:13;;;;;;;22.35;7.25;;;;;;;;;;4995667;28;20074;-77
2022/03/09 10:45:59;;;;;;;20.08;7.07;;;25.20;32.30;;;;;;4997495;28;20030;-77
2022/03/09 10:48:57;;;;;;;16.60;6.70;;;26.80;30.70;;;;;;4997324;28;20089;-76
2022/03/09 10:51:40;;;;;;;17.30;7.15;;;27.00;30.00;;;;;;4992652;28;20042;-77
2022/03/09 10:54:22;;;;;;;12.82;6.50;;;26.50;30.00;;;;;;4997179;28;20026;-76
2022/03/09 10:56:48;;;;;;;11.15;6.55;;;26.10;30.50;;;;;;4998129;28;20053;-75
2022/03/09 10:59:20;;;;;;;14.95;7.05;;;26.50;30.80;;;;;;4999748;28;20022;-76
2022/03/09 11:02:07;;;;;;;13.75;6.68;;;26.80;30.00;;;;;;4995409;28;20026;-76
2022/03/09 11:04:33;;;;;;;16.85;6.43;;;26.70;30.20;;;;;;4995569;28;20084;-76
2022/03/09 11:06:59;;;;;;;15.70;6.75;;;27.10;30.00;;;;;;4996437;28;20105;-76
2022/03/09 11:09:25;;;;;;;13.95;6.78;;;27.50;29.70;;;;;;4997401;28;20109;-78
2022/03/09 11:11:51;;;;;;;17.13;6.90;;;27.40;29.20;;;;;;4995841;28;20022;-76
2022/03/09 11:14:18;;;;;;;9.55;5.97;;;27.30;29.30;;;;;;5001178;28;20118;-77
2022/03/09 11:16:46;;;;;;;17.27;6.82;;;27.10;29.00;;;;;;4999526;28;20057;-77
2022/03/09 11:19:15;;;;;;;11.73;6.07;;;26.60;29.40;;;;;;5000807;28;20050;-77
2022/03/09 11:21:41;;;;;;;18.08;6.32;;;26.50;29.40;;;;;;4999883;28;20094;-77
2022/03/09 11:24:11;;;;;;;14.80;6.88;;;26.40;29.00;;;;;;5003330;28;20022;-78
2022/03/09 11:26:42;;;;;;;14.05;6.63;;;26.60;29.30;;;;;;4999578;28;20022;-79
2022/03/09 11:29:12;;;;;;;12.80;7.13;;;27.10;29.10;;;;;;5000719;28;20074;-78
2022/03/09 11:31:51;;;;;;;13.30;6.55;;;27.00;28.80;;;;;;4998445;28;20050;-76
2022/03/09 11:34:48;;;;;;;11.32;6.82;;;27.30;29.00;;;;;;4998548;28;20018;-77
2022/03/09 11:37:15;;;;;;;16.83;6.53;;;27.50;28.80;;;;;;5002984;28;20080;-77
2022/03/09 11:39:43;;;;;;;15.07;6.72;;;27.70;28.90;;;;;;5000058;28;20022;-76
2022/03/09 11:42:21;;;;;;;10.68;5.88;;;27.80;28.80;;;;;;4994983;28;20033;-77
2022/03/09 11:45:13;;;;;;;9.30;5.70;;;28.80;28.60;;;;;;4997418;28;20038;-76
2022/03/09 11:48:01;;;;;;;10.63;6.70;;;28.60;28.20;;;;;;4992512;28;20098;-77
2022/03/09 11:50:28;;;;;;;12.77;6.47;;;28.60;27.80;;;;;;5005846;28;20082;-77
2022/03/09 11:53:06;;;;;;;11.30;6.47;;;28.10;27.90;;;;;;5007652;28;20117;-77
2022/03/09 11:55:34;;;;;;;11.32;6.60;;;28.20;27.80;;;;;;5003995;28;20027;-77
2022/03/09 11:58:00;;;;;;;8.48;5.97;;;28.20;27.30;;;;;;5000040;28;20018;-76
2022/03/09 12:00:26;;;;;;;23.83;15.18;;;28.60;27.20;;;;;;5007149;28;20030;-77
2022/03/09 12:02:56;;;;;;;15.60;6.43;;;28.70;27.10;;;;;;5009384;28;20387;-77
2022/03/09 12:05:24;;;;;;;15.60;6.45;;;29.20;26.60;;;;;;5000618;28;20033;-77
2022/03/09 12:07:53;;;;;;;10.80;6.22;;;29.60;26.80;;;;;;5000696;28;20045;-78
2022/03/09 12:10:22;;;;;;;11.45;6.00;;;29.00;26.60;;;;;;5003401;28;20551;-77
2022/03/09 12:13:11;;;;;;;13.85;6.63;;;29.00;26.40;;;;;;5010760;28;20026;-77
2022/03/09 12:16:12;;;;;;;13.65;6.63;;;29.00;26.50;;;;;;5019393;28;20081;-77
2022/03/09 12:18:48;;;;;;;12.55;6.57;;;29.10;26.60;;;;;;4998643;28;20125;-77
2022/03/09 12:21:50;;;;;;;11.63;6.15;;;30.10;26.80;;;;;;5000013;28;20399;-75
2022/03/09 12:24:22;;;;;;;9.43;6.35;;;29.90;25.90;;;;;;5007075;28;20076;-77
2022/03/09 12:26:54;;;;;;;14.77;6.68;;;29.80;26.10;;;;;;5005551;28;20022;-77
2022/03/09 12:29:23;;;;;;;11.77;6.13;;;29.60;26.20;;;;;;5002940;28;20019;-77
2022/03/09 12:32:01;;;;;;;14.73;6.43;;;29.30;26.30;;;;;;5001031;28;20022;-76
2022/03/09 12:34:29;;;;;;;13.40;6.32;;;29.40;26.30;;;;;;5005195;28;20019;-76
2022/03/09 12:36:54;;;;;;;13.25;7.55;;;29.70;26.20;;;;;;5001649;28;20443;-77
2022/03/09 12:39:21;;;;;;;9.38;6.30;;;29.70;25.60;;;;;;5002622;28;20018;-77
2022/03/09 12:41:52;;;;;;;13.40;8.18;;;29.50;25.90;;;;;;5002998;28;20121;-77
2022/03/09 12:44:19;;;;;;;13.43;7.93;;;29.30;25.90;;;;;;5001991;28;20026;-78
2022/03/09 12:46:50;;;;;;;8.63;6.25;;;28.90;26.00;;;;;;4999770;28;20092;-76
2022/03/09 12:49:37;;;;;;;12.82;6.00;;;28.80;26.00;;;;;;5014336;28;20022;-76